createdAt,value
2023-01-02T00:01:33.694Z,10.91
2023-01-02T00:04:01.830Z,10.98
2023-01-02T00:06:29.949Z,11.16
2023-01-02T00:08:58.023Z,11.28
2023-01-02T00:11:26.137Z,11.33
2023-01-02T00:13:55.765Z,11.22
2023-01-02T00:16:24.071Z,11.18
2023-01-02T00:18:52.408Z,11.29
2023-01-02T00:21:20.563Z,11.32
2023-01-02T00:23:48.642Z,11.14
2023-01-02T00:26:16.738Z,10.94
2023-01-02T00:28:44.877Z,11.17
2023-01-02T00:31:15.395Z,11.06
2023-01-02T00:33:44.228Z,11.18
2023-01-02T00:36:14.087Z,11.02
2023-01-02T00:38:42.818Z,11.05
2023-01-02T00:41:11.527Z,10.90
2023-01-02T00:43:40.157Z,10.98
2023-01-02T00:46:11.939Z,10.88
2023-01-02T00:48:41.762Z,10.54
2023-01-02T00:51:10.151Z,10.86
2023-01-02T00:53:38.853Z,10.98
2023-01-02T00:56:07.192Z,11.04
2023-01-02T00:58:35.810Z,11.05
2023-01-02T01:01:04.205Z,11.00
2023-01-02T01:03:32.633Z,11.01
2023-01-02T01:06:07.493Z,11.07
2023-01-02T01:08:36.685Z,11.02
2023-01-02T01:11:09.581Z,10.94
2023-01-02T01:13:38.272Z,10.86
2023-01-02T01:16:07.622Z,10.91
2023-01-02T01:18:36.412Z,10.79
2023-01-02T01:21:09.522Z,10.32
2023-01-02T01:23:37.829Z,10.34
2023-01-02T01:26:06.799Z,10.48
2023-01-02T01:28:34.964Z,10.55
2023-01-02T01:31:04.612Z,10.58
2023-01-02T01:33:33.316Z,10.62
2023-01-02T01:36:05.428Z,10.51
2023-01-02T01:38:35.329Z,10.11
2023-01-02T01:41:04.317Z,9.66
2023-01-02T01:43:41.104Z,9.37
2023-01-02T01:46:19.087Z,9.59
2023-01-02T01:48:49.466Z,9.98
2023-01-02T01:51:20.007Z,10.04
2023-01-02T01:53:53.597Z,9.76
2023-01-02T01:56:21.770Z,10.14
2023-01-02T01:58:50.356Z,10.03
2023-01-02T02:01:18.912Z,10.28
2023-01-02T02:03:49.297Z,10.29
2023-01-02T02:06:19.119Z,10.17
2023-01-02T02:08:54.681Z,10.01
2023-01-02T02:11:22.962Z,10.52
2023-01-02T02:13:51.878Z,10.69
2023-01-02T02:16:36.198Z,10.81
2023-01-02T02:19:26.515Z,10.89
2023-01-02T02:22:10.681Z,11.02
2023-01-02T02:25:18.792Z,11.05
2023-01-02T02:28:16.242Z,11.13
2023-01-02T02:30:53.135Z,11.15
2023-01-02T02:33:34.786Z,11.09
2023-01-02T02:36:10.722Z,11.16
2023-01-02T02:38:53.543Z,11.18
2023-01-02T02:41:33.325Z,11.23
2023-01-02T02:44:09.705Z,11.18
2023-01-02T02:46:52.005Z,10.88
2023-01-02T02:49:32.306Z,10.90
2023-01-02T02:52:08.681Z,11.03
2023-01-02T02:54:43.577Z,11.23
2023-01-02T02:57:14.121Z,11.40
2023-01-02T02:59:43.208Z,11.47
2023-01-02T03:02:16.407Z,11.48
2023-01-02T03:04:46.990Z,11.54
2023-01-02T03:07:25.580Z,11.51
2023-01-02T03:10:04.511Z,11.42
2023-01-02T03:12:41.371Z,11.42
2023-01-02T03:15:18.852Z,11.43
2023-01-02T03:18:00.134Z,11.43
2023-01-02T03:20:34.862Z,11.43
2023-01-02T03:23:07.710Z,11.27
2023-01-02T03:25:37.924Z,11.21
2023-01-02T03:28:09.036Z,11.11
2023-01-02T03:30:41.045Z,11.06
2023-01-02T03:33:15.799Z,10.76
2023-01-02T03:35:48.057Z,10.43
2023-01-02T03:38:21.576Z,10.36
2023-01-02T03:40:56.852Z,10.24
2023-01-02T03:43:29.284Z,10.33
2023-01-02T03:46:10.109Z,10.35
2023-01-02T03:48:44.989Z,10.27
2023-01-02T03:51:13.746Z,10.28
2023-01-02T03:53:42.079Z,10.24
2023-01-02T03:56:18.557Z,10.15
2023-01-02T03:58:52.522Z,10.16
2023-01-02T04:01:33.956Z,10.10
2023-01-02T04:04:13.054Z,10.07
2023-01-02T04:06:48.013Z,10.04
2023-01-02T04:09:20.868Z,9.65
2023-01-02T04:11:55.881Z,9.60
2023-01-02T04:14:30.255Z,9.76
2023-01-02T04:17:02.321Z,9.78
2023-01-02T04:19:36.530Z,9.65
2023-01-02T04:22:09.342Z,9.69
2023-01-02T04:24:40.198Z,9.69
2023-01-02T04:27:13.845Z,9.43
2023-01-02T04:29:42.526Z,9.37
2023-01-02T04:32:15.758Z,9.54
2023-01-02T04:34:47.834Z,9.55
2023-01-02T04:37:28.306Z,9.59
2023-01-02T04:39:59.849Z,9.64
2023-01-02T04:42:28.165Z,9.65
2023-01-02T04:44:56.265Z,9.36
2023-01-02T04:47:24.363Z,9.21
2023-01-02T04:49:53.839Z,9.31
2023-01-02T04:52:22.035Z,8.87
2023-01-02T04:54:50.203Z,8.91
2023-01-02T04:57:18.318Z,9.06
2023-01-02T04:59:46.388Z,9.18
2023-01-02T05:02:14.551Z,9.14
2023-01-02T05:04:42.686Z,8.95
2023-01-02T05:07:12.851Z,8.92
2023-01-02T05:09:40.966Z,8.99
2023-01-02T05:12:09.080Z,9.08
2023-01-02T05:14:37.232Z,9.18
2023-01-02T05:17:05.364Z,9.24
2023-01-02T05:19:33.385Z,9.02
2023-01-02T05:22:18.864Z,8.89
2023-01-02T05:24:48.270Z,8.84
2023-01-02T05:27:16.476Z,8.89
2023-01-02T05:29:44.555Z,8.71
2023-01-02T05:32:12.693Z,8.94
2023-01-02T05:34:40.715Z,8.94
2023-01-02T05:37:08.797Z,8.75
2023-01-02T05:39:36.874Z,8.99
2023-01-02T05:42:06.740Z,9.18
2023-01-02T05:44:34.831Z,9.13
2023-01-02T05:47:03.024Z,9.32
2023-01-02T05:49:31.129Z,9.34
2023-01-02T05:51:59.253Z,9.43
2023-01-02T05:54:27.382Z,9.50
2023-01-02T05:56:55.477Z,9.53
2023-01-02T05:59:24.941Z,9.64
2023-01-02T06:01:53.161Z,9.51
2023-01-02T06:04:21.324Z,9.69
2023-01-02T06:06:49.700Z,9.77
2023-01-02T06:09:19.041Z,9.80
2023-01-02T06:11:47.176Z,9.76
2023-01-02T06:14:15.234Z,9.76
2023-01-02T06:16:44.838Z,9.85
2023-01-02T06:19:12.970Z,9.71
2023-01-02T06:21:41.026Z,9.72
2023-01-02T06:24:09.434Z,9.80
2023-01-02T06:26:37.566Z,9.85
2023-01-02T06:29:06.065Z,9.76
2023-01-02T06:31:34.229Z,9.67
2023-01-02T06:34:04.979Z,9.82
2023-01-02T06:36:35.130Z,9.91
2023-01-02T06:39:03.527Z,9.97
2023-01-02T06:41:31.643Z,10.03
2023-01-02T06:43:59.765Z,10.09
2023-01-02T06:46:27.885Z,10.17
2023-01-02T06:48:56.247Z,10.24
2023-01-02T06:51:25.824Z,10.29
2023-01-02T06:53:53.992Z,10.33
2023-01-02T06:56:22.776Z,10.33
2023-01-02T06:58:50.872Z,10.34
2023-01-02T07:01:21.049Z,10.10
2023-01-02T07:03:49.569Z,9.91
2023-01-02T07:06:20.700Z,10.11
2023-01-02T07:08:50.666Z,10.27
2023-01-02T07:11:20.687Z,10.37
2023-01-02T07:13:49.987Z,10.44
2023-01-02T07:16:20.360Z,10.49
2023-01-02T07:18:48.776Z,10.48
2023-01-02T07:21:18.140Z,10.58
2023-01-02T07:23:46.439Z,10.59
2023-01-02T07:26:15.954Z,10.67
2023-01-02T07:28:44.168Z,10.74
2023-01-02T07:31:14.853Z,10.79
2023-01-02T07:33:44.403Z,10.86
2023-01-02T07:36:14.061Z,10.93
2023-01-02T07:38:42.259Z,10.98
2023-01-02T07:41:16.759Z,11.07
2023-01-02T07:43:46.845Z,11.15
2023-01-02T07:46:16.829Z,11.25
2023-01-02T07:48:45.708Z,11.34
2023-01-02T07:51:16.394Z,11.44
2023-01-02T07:53:46.550Z,11.53
2023-01-02T07:56:16.085Z,11.61
2023-01-02T07:58:44.202Z,11.66
2023-01-02T08:01:13.994Z,11.71
2023-01-02T08:03:42.744Z,11.59
2023-01-02T08:06:13.189Z,11.47
2023-01-02T08:08:41.583Z,11.35
2023-01-02T08:11:11.661Z,11.36
2023-01-02T08:13:41.525Z,11.24
2023-01-02T08:16:12.265Z,11.07
2023-01-02T08:18:40.521Z,11.19
2023-01-02T08:21:09.942Z,11.16
2023-01-02T08:23:38.462Z,11.21
2023-01-02T08:26:08.328Z,11.28
2023-01-02T08:28:37.538Z,11.28
2023-01-02T08:31:11.537Z,11.26
2023-01-02T08:33:39.747Z,11.22
2023-01-02T08:36:08.772Z,11.25
2023-01-02T08:38:36.919Z,11.25
2023-01-02T08:41:05.378Z,11.24
2023-01-02T08:43:35.656Z,11.23
2023-01-02T08:46:05.817Z,11.17
2023-01-02T08:48:35.490Z,11.19
2023-01-02T08:51:04.508Z,11.22
2023-01-02T08:53:32.655Z,10.94
2023-01-02T08:56:22.501Z,10.41
2023-01-02T08:58:52.842Z,10.25
2023-01-02T09:01:22.138Z,10.44
2023-01-02T09:03:52.231Z,10.58
2023-01-02T09:06:22.388Z,10.71
2023-01-02T09:08:52.408Z,10.78
2023-01-02T09:11:23.420Z,10.87
2023-01-02T09:13:52.017Z,11.02
2023-01-02T09:16:22.319Z,11.16
2023-01-02T09:18:52.329Z,11.28
2023-01-02T09:21:20.487Z,11.41
2023-01-02T09:23:48.566Z,11.51
2023-01-02T09:26:16.951Z,11.62
2023-01-02T09:28:45.705Z,11.71
2023-01-02T09:31:15.711Z,11.82
2023-01-02T09:33:45.712Z,11.87
2023-01-02T09:36:17.062Z,11.91
2023-01-02T09:38:45.323Z,12.00
2023-01-02T09:41:28.081Z,12.05
2023-01-02T09:44:01.225Z,12.02
2023-01-02T09:46:35.290Z,12.08
2023-01-02T09:49:04.879Z,12.14
2023-01-02T09:51:36.290Z,12.19
2023-01-02T09:54:05.896Z,12.24
2023-01-02T09:56:39.794Z,12.31
2023-01-02T09:59:15.937Z,12.37
2023-01-02T10:01:57.127Z,12.42
2023-01-02T10:04:38.742Z,12.45
2023-01-02T10:07:12.523Z,12.49
2023-01-02T10:09:50.804Z,12.64
2023-01-02T10:12:26.709Z,12.75
2023-01-02T10:14:58.131Z,12.87
2023-01-02T10:17:29.028Z,12.97
2023-01-02T10:20:00.826Z,13.08
2023-01-02T10:22:38.116Z,13.21
2023-01-02T10:25:12.488Z,13.33
2023-01-02T10:27:46.288Z,13.48
2023-01-02T10:30:20.976Z,13.59
2023-01-02T10:32:56.601Z,13.70
2023-01-02T10:35:35.125Z,13.87
2023-01-02T10:38:05.056Z,14.00
2023-01-02T10:40:34.495Z,14.09
2023-01-02T10:43:02.931Z,14.15
2023-01-02T10:45:31.634Z,14.22
2023-01-02T10:47:59.814Z,14.32
2023-01-02T10:50:32.234Z,14.32
2023-01-02T10:53:10.084Z,14.37
2023-01-02T10:55:41.637Z,14.38
2023-01-02T10:58:19.146Z,14.47
2023-01-02T11:00:49.614Z,14.51
2023-01-02T11:03:22.451Z,14.64
2023-01-02T11:05:52.423Z,14.68
2023-01-02T11:08:25.091Z,14.75
2023-01-02T11:10:53.290Z,14.78
2023-01-02T11:13:23.094Z,14.78
2023-01-02T11:15:53.867Z,14.62
2023-01-02T11:18:25.601Z,14.82
2023-01-02T11:20:57.165Z,14.79
2023-01-02T11:23:27.665Z,14.89
2023-01-02T11:25:56.157Z,14.90
2023-01-02T11:28:28.224Z,15.03
2023-01-02T11:31:02.567Z,15.08
2023-01-02T11:33:32.368Z,15.15
2023-01-02T11:36:08.488Z,15.24
2023-01-02T11:38:46.973Z,15.36
2023-01-02T11:41:49.361Z,15.41
2023-01-02T11:44:23.004Z,15.45
2023-01-02T11:46:52.333Z,15.52
2023-01-02T11:49:24.753Z,15.60
2023-01-02T11:51:57.613Z,15.63
2023-01-02T11:54:34.937Z,15.74
2023-01-02T11:57:03.271Z,15.83
2023-01-02T11:59:37.550Z,15.91
2023-01-02T12:02:16.584Z,16.10
2023-01-02T12:04:44.720Z,16.50
2023-01-02T12:07:30.300Z,16.96
2023-01-02T12:10:10.081Z,17.21
2023-01-02T12:12:53.313Z,17.39
2023-01-02T12:15:44.948Z,17.68
2023-01-02T12:18:28.157Z,18.00
2023-01-02T12:21:04.137Z,18.45
2023-01-02T12:23:44.811Z,18.77
2023-01-02T12:26:19.343Z,19.31
2023-01-02T12:29:05.594Z,19.66
2023-01-02T12:31:51.587Z,19.72
2023-01-02T12:34:35.061Z,19.47
2023-01-02T12:37:24.686Z,18.91
2023-01-02T12:40:32.617Z,18.57
2023-01-02T12:43:15.683Z,17.61
2023-01-02T12:45:53.287Z,17.35
2023-01-02T12:48:40.178Z,17.21
2023-01-02T12:51:18.293Z,17.54
2023-01-02T12:54:20.178Z,17.61
2023-01-02T12:56:55.003Z,17.45
2023-01-02T13:00:00.443Z,16.87
2023-01-02T13:02:43.456Z,17.15
2023-01-02T13:05:15.938Z,17.58
2023-01-02T13:07:49.186Z,17.84
2023-01-02T13:10:21.492Z,18.02
2023-01-02T13:12:50.803Z,17.92
2023-01-02T13:15:23.860Z,18.12
2023-01-02T13:18:02.240Z,18.20
2023-01-02T13:20:45.083Z,18.32
2023-01-02T13:23:32.761Z,18.31
2023-01-02T13:26:03.113Z,18.52
2023-01-02T15:25:15.904Z,13.19
2023-01-02T15:27:44.053Z,13.78
2023-01-02T15:30:23.948Z,13.99
2023-01-02T15:32:52.059Z,14.14
2023-01-02T15:35:23.382Z,14.23
2023-01-02T15:37:52.433Z,14.22
2023-01-02T15:40:28.131Z,14.02
2023-01-02T15:43:17.929Z,13.94
2023-01-02T15:45:49.442Z,13.89
2023-01-02T15:48:17.752Z,13.90
2023-01-02T15:50:55.374Z,13.84
2023-01-02T15:53:28.277Z,13.95
2023-01-02T15:55:58.454Z,13.93
2023-01-02T15:58:30.131Z,14.03
2023-01-02T16:01:19.423Z,13.99
2023-01-02T16:04:03.070Z,13.87
2023-01-02T16:06:34.843Z,13.69
2023-01-02T16:09:05.711Z,13.66
2023-01-02T16:11:44.799Z,13.42
2023-01-02T16:14:22.208Z,13.37
2023-01-02T16:16:55.225Z,13.37
2023-01-02T16:19:28.336Z,13.33
2023-01-02T16:22:05.286Z,13.27
2023-01-02T16:24:35.374Z,13.14
2023-01-02T16:27:05.754Z,12.85
2023-01-02T16:29:33.988Z,13.05
2023-01-02T16:32:02.966Z,12.88
2023-01-02T16:34:38.071Z,12.32
2023-01-02T16:37:27.256Z,12.26
2023-01-02T16:39:55.833Z,12.25
2023-01-02T16:42:41.574Z,12.88
2023-01-02T16:45:11.914Z,12.91
2023-01-02T16:47:43.554Z,12.97
2023-01-02T16:50:18.371Z,12.79
2023-01-02T16:52:46.599Z,12.78
2023-01-02T16:55:17.318Z,12.79
2023-01-02T16:57:46.864Z,12.59
2023-01-02T17:00:19.065Z,12.38
2023-01-02T17:02:48.315Z,12.26
2023-01-02T17:05:20.113Z,12.29
2023-01-02T17:07:48.290Z,12.37
2023-01-02T17:10:16.783Z,12.51
2023-01-02T17:12:46.728Z,12.57
2023-01-02T17:15:16.161Z,12.64
2023-01-02T17:17:44.487Z,12.58
2023-01-02T17:20:13.950Z,12.77
2023-01-02T17:22:42.385Z,12.63
2023-01-02T17:25:14.536Z,12.63
2023-01-02T17:27:43.537Z,12.89
2023-01-02T17:30:15.032Z,12.65
2023-01-02T17:32:44.164Z,12.70
2023-01-02T17:35:13.112Z,12.75
2023-01-02T17:37:41.455Z,12.55
2023-01-02T17:40:12.134Z,12.79
2023-01-02T17:42:40.688Z,12.58
2023-01-02T17:45:10.407Z,11.99
2023-01-02T17:47:59.909Z,12.45
2023-01-02T17:50:28.116Z,12.39
2023-01-02T17:52:56.156Z,12.17
2023-01-02T17:55:24.265Z,12.36
2023-01-02T17:57:52.304Z,12.38
2023-01-02T18:00:23.473Z,12.43
2023-01-02T18:02:54.420Z,12.60
2023-01-02T18:05:22.972Z,12.43
2023-01-02T18:07:51.273Z,12.58
2023-01-02T18:10:20.820Z,12.39
2023-01-02T18:12:50.173Z,12.54
2023-01-02T18:15:21.120Z,12.26
2023-01-02T18:17:50.172Z,12.00
2023-01-02T18:20:21.888Z,12.06
2023-01-02T18:22:51.231Z,12.20
2023-01-02T18:25:21.720Z,11.93
2023-01-02T18:27:50.087Z,11.90
2023-01-02T18:30:20.722Z,12.04
2023-01-02T18:32:50.201Z,12.01
2023-01-02T18:38:25.085Z,11.98
2023-01-02T18:40:53.527Z,11.74
2023-01-02T18:43:28.543Z,11.72
2023-01-02T18:46:01.567Z,12.02
2023-01-02T18:48:29.791Z,11.52
2023-01-02T18:51:01.080Z,11.50
2023-01-02T18:53:35.257Z,11.44
2023-01-02T18:56:12.952Z,11.31
2023-01-02T18:58:43.569Z,11.56
2023-01-02T19:01:26.091Z,11.32
2023-01-02T19:03:58.298Z,10.94
2023-01-02T19:06:29.197Z,11.24
2023-01-02T19:09:06.912Z,11.05
2023-01-02T19:12:01.907Z,10.69
2023-01-02T19:14:39.096Z,10.82
2023-01-02T19:17:19.811Z,10.81
2023-01-02T19:19:48.553Z,10.52
2023-01-02T19:22:20.933Z,10.04
2023-01-02T19:24:49.659Z,10.90
2023-01-02T19:27:24.612Z,10.89
2023-01-02T19:29:53.470Z,11.04
2023-01-02T19:32:28.304Z,10.75
2023-01-02T19:34:58.295Z,10.76
2023-01-02T19:37:39.040Z,10.60
2023-01-02T19:40:18.950Z,10.57
2023-01-02T19:42:48.554Z,10.28
2023-01-02T19:45:18.927Z,10.18
2023-01-02T19:47:48.071Z,10.48
2023-01-02T19:50:19.665Z,10.56
2023-01-02T19:52:49.450Z,10.16
2023-01-02T19:55:18.779Z,10.56
2023-01-02T19:57:47.761Z,10.53
2023-01-02T20:00:20.110Z,10.15
2023-01-02T20:02:51.655Z,10.08
2023-01-02T20:05:22.336Z,9.78
2023-01-02T20:07:54.357Z,10.23
2023-01-02T20:10:23.087Z,10.06
2023-01-02T20:12:51.297Z,10.27
2023-01-02T20:15:23.379Z,10.30
2023-01-02T20:17:52.412Z,10.15
2023-01-02T20:20:21.937Z,9.86
2023-01-02T20:22:51.913Z,9.96
2023-01-02T20:25:24.449Z,10.17
2023-01-02T20:27:55.031Z,9.75
2023-01-02T20:30:26.274Z,10.06
2023-01-02T20:32:55.917Z,9.78
2023-01-02T20:35:24.494Z,9.51
2023-01-02T20:37:52.700Z,9.23
2023-01-02T20:40:22.314Z,8.77
2023-01-02T20:42:50.472Z,9.11
2023-01-02T20:45:18.884Z,9.25
2023-01-02T20:47:47.118Z,8.63
2023-01-02T20:50:15.338Z,8.65
2023-01-02T20:52:43.471Z,8.37
2023-01-02T20:55:12.231Z,8.65
2023-01-02T20:57:41.691Z,8.58
2023-01-02T21:00:10.915Z,8.27
2023-01-02T21:02:39.303Z,8.62
2023-01-02T21:05:08.084Z,8.48
2023-01-02T21:07:36.196Z,8.66
2023-01-02T21:10:04.438Z,8.57
2023-01-02T21:12:49.897Z,8.59
2023-01-02T21:15:37.389Z,8.50
2023-01-02T21:18:05.959Z,8.51
2023-01-02T21:20:34.049Z,8.66
2023-01-02T21:23:02.160Z,8.73
2023-01-02T21:25:30.293Z,8.94
2023-01-02T21:27:58.604Z,8.64
2023-01-02T21:30:28.140Z,8.57
2023-01-02T21:32:56.210Z,8.81
2023-01-02T21:35:24.368Z,8.53
2023-01-02T21:37:52.565Z,8.53
2023-01-02T21:40:20.927Z,8.51
2023-01-02T21:42:49.156Z,8.76
2023-01-02T21:45:17.445Z,8.58
2023-01-02T21:47:46.938Z,8.53
2023-01-02T21:50:15.545Z,8.68
2023-01-02T21:52:43.624Z,8.48
2023-01-02T21:55:17.501Z,8.65
2023-01-02T21:58:12.386Z,8.39
2023-01-02T22:00:34.127Z,8.45
2023-01-02T22:03:03.919Z,8.55
2023-01-02T22:05:32.205Z,8.41
2023-01-02T22:08:00.459Z,8.57
2023-01-02T22:10:28.816Z,8.65
2023-01-02T22:12:56.979Z,8.67
2023-01-02T22:15:25.377Z,8.78
2023-01-02T22:17:53.446Z,8.62
2023-01-02T22:20:23.493Z,8.28
2023-01-02T22:22:51.780Z,8.74
2023-01-02T22:25:19.942Z,8.53
2023-01-02T22:27:48.140Z,8.58
2023-01-02T22:30:24.312Z,8.84
2023-01-02T22:32:56.001Z,8.93
2023-01-02T22:35:25.561Z,8.84
2023-01-02T22:37:53.841Z,8.66
2023-01-02T22:40:22.131Z,8.61
2023-01-02T22:43:05.728Z,8.43
2023-01-02T22:45:38.057Z,8.32
2023-01-02T22:48:09.780Z,8.60
2023-01-02T22:50:45.322Z,8.20
2023-01-02T22:53:20.000Z,8.24
2023-01-02T22:55:48.454Z,8.43
2023-01-02T22:58:16.775Z,8.09
2023-01-02T23:00:46.320Z,8.16
2023-01-02T23:03:15.848Z,8.16
2023-01-02T23:05:45.321Z,8.23
2023-01-02T23:08:14.591Z,7.89
2023-01-02T23:10:42.884Z,7.77
2023-01-02T23:13:11.136Z,7.75
2023-01-02T23:16:00.839Z,7.78
2023-01-02T23:18:49.122Z,7.49
2023-01-02T23:21:25.101Z,7.59
2023-01-02T23:23:53.922Z,7.75
2023-01-02T23:26:23.444Z,8.01
2023-01-02T23:29:08.382Z,8.03
2023-01-02T23:31:38.629Z,8.18
2023-01-02T23:34:07.228Z,7.80
2023-01-02T23:36:37.353Z,7.56
2023-01-02T23:39:06.968Z,7.54
2023-01-02T23:41:35.715Z,7.49
2023-01-02T23:44:03.942Z,7.41
2023-01-02T23:46:32.169Z,7.20
2023-01-02T23:49:00.410Z,7.25
2023-01-02T23:51:30.564Z,7.17
2023-01-02T23:54:00.951Z,7.25
2023-01-02T23:56:31.625Z,7.34
2023-01-02T23:59:01.993Z,7.26
